sensor_id;sensor_type;location;lat;lon;timestamp;pressure;altitude;pressure_sealevel;temperature;humidity
32875;BME280;40468;42.128;24.750;2022-09-30T00:00:56;99215.78;;;20.16;55.26
32875;BME280;40468;42.128;24.750;2022-09-30T00:02:28;99226.66;;;20.13;55.35
32875;BME280;40468;42.128;24.750;2022-09-30T00:04:00;99216.34;;;20.10;55.19
32875;BME280;40468;42.128;24.750;2022-09-30T00:05:32;99223.88;;;20.05;55.54
32875;BME280;40468;42.128;24.750;2022-09-30T00:07:03;99220.84;;;20.00;55.41
32875;BME280;40468;42.128;24.750;2022-09-30T00:08:36;99230.03;;;19.96;55.60
32875;BME280;40468;42.128;24.750;2022-09-30T00:10:09;99233.94;;;19.92;55.66
32875;BME280;40468;42.128;24.750;2022-09-30T00:11:43;99231.59;;;19.89;55.84
32875;BME280;40468;42.128;24.750;2022-09-30T00:13:16;99232.88;;;19.85;55.90
32875;BME280;40468;42.128;24.750;2022-09-30T00:14:49;99234.94;;;19.81;56.01
32875;BME280;40468;42.128;24.750;2022-09-30T00:16:21;99236.31;;;19.75;55.86
32875;BME280;40468;42.128;24.750;2022-09-30T00:17:52;99233.16;;;19.72;56.07
32875;BME280;40468;42.128;24.750;2022-09-30T00:19:26;99229.69;;;19.71;56.18
32875;BME280;40468;42.128;24.750;2022-09-30T00:20:58;99228.16;;;19.69;56.24
32875;BME280;40468;42.128;24.750;2022-09-30T00:22:29;99233.44;;;19.69;56.48
32875;BME280;40468;42.128;24.750;2022-09-30T00:24:02;99238.88;;;19.67;56.56
32875;BME280;40468;42.128;24.750;2022-09-30T00:25:34;99239.81;;;19.66;56.50
32875;BME280;40468;42.128;24.750;2022-09-30T00:27:06;99247.03;;;19.64;56.62
32875;BME280;40468;42.128;24.750;2022-09-30T00:28:39;99236.75;;;19.61;56.80
32875;BME280;40468;42.128;24.750;2022-09-30T00:30:12;99235.06;;;19.60;56.82
32875;BME280;40468;42.128;24.750;2022-09-30T00:31:43;99244.81;;;19.60;56.78
32875;BME280;40468;42.128;24.750;2022-09-30T00:33:15;99243.16;;;19.59;57.01
32875;BME280;40468;42.128;24.750;2022-09-30T00:34:46;99237.56;;;19.52;56.99
32875;BME280;40468;42.128;24.750;2022-09-30T00:36:18;99245.22;;;19.55;57.07
32875;BME280;40468;42.128;24.750;2022-09-30T00:37:49;99247.84;;;19.55;57.26
32875;BME280;40468;42.128;24.750;2022-09-30T00:39:22;99252.31;;;19.54;57.24
32875;BME280;40468;42.128;24.750;2022-09-30T00:40:55;99250.66;;;19.53;57.59
32875;BME280;40468;42.128;24.750;2022-09-30T00:42:27;99248.13;;;19.52;57.52
32875;BME280;40468;42.128;24.750;2022-09-30T00:44:01;99249.13;;;19.51;57.63
32875;BME280;40468;42.128;24.750;2022-09-30T00:45:34;99248.41;;;19.49;57.67
32875;BME280;40468;42.128;24.750;2022-09-30T00:47:08;99247.88;;;19.45;57.74
32875;BME280;40468;42.128;24.750;2022-09-30T00:48:52;99252.47;;;19.43;57.69
32875;BME280;40468;42.128;24.750;2022-09-30T00:50:30;99257.06;;;19.41;57.95
32875;BME280;40468;42.128;24.750;2022-09-30T00:52:04;99258.16;;;19.39;58.14
32875;BME280;40468;42.128;24.750;2022-09-30T00:53:38;99251.34;;;19.36;58.21
32875;BME280;40468;42.128;24.750;2022-09-30T00:55:23;99249.81;;;19.33;58.63
32875;BME280;40468;42.128;24.750;2022-09-30T00:57:01;99257.31;;;19.28;59.03
32875;BME280;40468;42.128;24.750;2022-09-30T00:58:36;99252.03;;;19.28;58.85
32875;BME280;40468;42.128;24.750;2022-09-30T01:00:09;99251.19;;;19.28;58.96
32875;BME280;40468;42.128;24.750;2022-09-30T01:01:42;99252.03;;;19.28;59.12
32875;BME280;40468;42.128;24.750;2022-09-30T01:03:14;99252.88;;;19.29;59.07
32875;BME280;40468;42.128;24.750;2022-09-30T01:04:46;99249.38;;;19.28;59.06
32875;BME280;40468;42.128;24.750;2022-09-30T01:06:19;99253.00;;;19.27;59.24
32875;BME280;40468;42.128;24.750;2022-09-30T01:07:54;99256.47;;;19.28;59.39
32875;BME280;40468;42.128;24.750;2022-09-30T01:09:26;99262.59;;;19.28;59.43
32875;BME280;40468;42.128;24.750;2022-09-30T01:10:58;99269.69;;;19.28;59.56
32875;BME280;40468;42.128;24.750;2022-09-30T01:12:31;99271.22;;;19.30;59.57
32875;BME280;40468;42.128;24.750;2022-09-30T01:14:07;99279.41;;;19.27;59.97
32875;BME280;40468;42.128;24.750;2022-09-30T01:15:55;99270.22;;;19.22;59.84
32875;BME280;40468;42.128;24.750;2022-09-30T01:17:36;99280.78;;;19.22;59.72
32875;BME280;40468;42.128;24.750;2022-09-30T01:19:25;99280.09;;;19.20;59.72
32875;BME280;40468;42.128;24.750;2022-09-30T01:21:10;99282.88;;;19.18;59.44
32875;BME280;40468;42.128;24.750;2022-09-30T01:22:58;99290.94;;;19.17;59.48
32875;BME280;40468;42.128;24.750;2022-09-30T01:24:39;99294.25;;;19.09;59.58
32875;BME280;40468;42.128;24.750;2022-09-30T01:26:33;99294.25;;;19.09;59.33
32875;BME280;40468;42.128;24.750;2022-09-30T01:28:40;99294.53;;;19.06;59.25
32875;BME280;40468;42.128;24.750;2022-09-30T01:30:19;99282.59;;;19.02;59.31
32875;BME280;40468;42.128;24.750;2022-09-30T01:31:56;99289.78;;;19.00;59.48
32875;BME280;40468;42.128;24.750;2022-09-30T01:33:38;99283.81;;;18.98;59.51
32875;BME280;40468;42.128;24.750;2022-09-30T01:35:20;99283.97;;;18.96;59.56
32875;BME280;40468;42.128;24.750;2022-09-30T01:37:05;99280.59;;;18.94;59.70
32875;BME280;40468;42.128;24.750;2022-09-30T01:38:46;99277.97;;;18.94;59.64
32875;BME280;40468;42.128;24.750;2022-09-30T01:40:23;99274.50;;;18.94;59.50
32875;BME280;40468;42.128;24.750;2022-09-30T01:42:06;99276.31;;;18.93;59.75
32875;BME280;40468;42.128;24.750;2022-09-30T01:43:45;99267.81;;;18.90;59.91
32875;BME280;40468;42.128;24.750;2022-09-30T01:45:26;99276.00;;;18.86;60.16
32875;BME280;40468;42.128;24.750;2022-09-30T01:47:07;99268.50;;;18.82;60.02
32875;BME280;40468;42.128;24.750;2022-09-30T01:48:45;99275.44;;;18.83;60.32
32875;BME280;40468;42.128;24.750;2022-09-30T01:50:25;99272.63;;;18.75;60.64
32875;BME280;40468;42.128;24.750;2022-09-30T01:52:04;99270.50;;;18.69;61.11
32875;BME280;40468;42.128;24.750;2022-09-30T01:53:40;99281.31;;;18.65;61.05
32875;BME280;40468;42.128;24.750;2022-09-30T01:55:17;99285.06;;;18.63;61.34
32875;BME280;40468;42.128;24.750;2022-09-30T01:56:57;99285.06;;;18.63;61.27
32875;BME280;40468;42.128;24.750;2022-09-30T01:58:37;99283.28;;;18.63;61.28
32875;BME280;40468;42.128;24.750;2022-09-30T02:00:11;99284.09;;;18.64;61.21
32875;BME280;40468;42.128;24.750;2022-09-30T02:01:48;99291.88;;;18.65;61.38
32875;BME280;40468;42.128;24.750;2022-09-30T02:03:29;99295.34;;;18.66;61.32
32875;BME280;40468;42.128;24.750;2022-09-30T02:05:07;99274.38;;;18.64;61.26
32875;BME280;40468;42.128;24.750;2022-09-30T02:06:42;99274.22;;;18.66;61.19
32875;BME280;40468;42.128;24.750;2022-09-30T02:08:20;99276.88;;;18.66;61.26
32875;BME280;40468;42.128;24.750;2022-09-30T02:09:57;99280.47;;;18.65;61.28
32875;BME280;40468;42.128;24.750;2022-09-30T02:11:32;99285.75;;;18.65;61.27
32875;BME280;40468;42.128;24.750;2022-09-30T02:13:11;99284.94;;;18.64;61.49
32875;BME280;40468;42.128;24.750;2022-09-30T02:14:47;99289.38;;;18.64;61.44
32875;BME280;40468;42.128;24.750;2022-09-30T02:16:23;99287.69;;;18.63;61.56
32875;BME280;40468;42.128;24.750;2022-09-30T02:17:59;99295.75;;;18.61;61.59
32875;BME280;40468;42.128;24.750;2022-09-30T02:19:37;99293.22;;;18.60;61.79
32875;BME280;40468;42.128;24.750;2022-09-30T02:21:12;99298.78;;;18.57;61.88
32875;BME280;40468;42.128;24.750;2022-09-30T02:22:49;99291.84;;;18.56;61.85
32875;BME280;40468;42.128;24.750;2022-09-30T02:24:24;99291.84;;;18.56;61.81
32875;BME280;40468;42.128;24.750;2022-09-30T02:26:00;99290.84;;;18.57;61.79
32875;BME280;40468;42.128;24.750;2022-09-30T02:27:43;99290.03;;;18.56;61.64
32875;BME280;40468;42.128;24.750;2022-09-30T02:29:19;99287.94;;;18.50;62.14
32875;BME280;40468;42.128;24.750;2022-09-30T02:30:56;99290.19;;;18.55;61.91
32875;BME280;40468;42.128;24.750;2022-09-30T02:32:32;99289.19;;;18.56;62.06
32875;BME280;40468;42.128;24.750;2022-09-30T02:34:08;99291.84;;;18.56;61.86
32875;BME280;40468;42.128;24.750;2022-09-30T02:35:47;99284.91;;;18.55;61.87
32875;BME280;40468;42.128;24.750;2022-09-30T02:37:25;99287.94;;;18.50;61.86
32875;BME280;40468;42.128;24.750;2022-09-30T02:39:00;99288.56;;;18.42;61.85
32875;BME280;40468;42.128;24.750;2022-09-30T02:40:37;99288.16;;;18.37;62.02
32875;BME280;40468;42.128;24.750;2022-09-30T02:42:15;99296.19;;;18.36;61.93
32875;BME280;40468;42.128;24.750;2022-09-30T02:43:50;99304.22;;;18.34;61.79
32875;BME280;40468;42.128;24.750;2022-09-30T02:45:23;99298.97;;;18.34;61.82
32875;BME280;40468;42.128;24.750;2022-09-30T02:47:02;99294.63;;;18.33;61.77
32875;BME280;40468;42.128;24.750;2022-09-30T02:48:42;99295.59;;;18.32;61.82
32875;BME280;40468;42.128;24.750;2022-09-30T02:50:18;99299.22;;;18.31;61.79
32875;BME280;40468;42.128;24.750;2022-09-30T02:52:04;99301.97;;;18.30;62.02
32875;BME280;40468;42.128;24.750;2022-09-30T02:53:44;99302.13;;;18.28;62.02
32875;BME280;40468;42.128;24.750;2022-09-30T02:55:20;99303.06;;;18.27;61.91
32875;BME280;40468;42.128;24.750;2022-09-30T02:57:00;99305.84;;;18.26;61.78
32875;BME280;40468;42.128;24.750;2022-09-30T02:58:38;99304.31;;;18.23;62.04
32875;BME280;40468;42.128;24.750;2022-09-30T03:00:10;99304.31;;;18.23;62.05
32875;BME280;40468;42.128;24.750;2022-09-30T03:01:43;99300.84;;;18.23;62.17
32875;BME280;40468;42.128;24.750;2022-09-30T03:03:18;99305.28;;;18.22;62.10
32875;BME280;40468;42.128;24.750;2022-09-30T03:04:51;99297.38;;;18.22;62.10
32875;BME280;40468;42.128;24.750;2022-09-30T03:06:23;99300.00;;;18.22;62.06
32875;BME280;40468;42.128;24.750;2022-09-30T03:07:57;99300.00;;;18.22;61.98
32875;BME280;40468;42.128;24.750;2022-09-30T03:09:29;99298.31;;;18.21;62.35
32875;BME280;40468;42.128;24.750;2022-09-30T03:11:01;99300.94;;;18.21;62.08
32875;BME280;40468;42.128;24.750;2022-09-30T03:12:40;99308.03;;;18.21;62.26
32875;BME280;40468;42.128;24.750;2022-09-30T03:14:31;99314.97;;;18.22;62.05
32875;BME280;40468;42.128;24.750;2022-09-30T03:16:15;99314.97;;;18.22;62.27
32875;BME280;40468;42.128;24.750;2022-09-30T03:17:58;99316.91;;;18.19;62.21
32875;BME280;40468;42.128;24.750;2022-09-30T03:19:40;99319.41;;;18.21;62.42
32875;BME280;40468;42.128;24.750;2022-09-30T03:21:29;99323.84;;;18.21;62.50
32875;BME280;40468;42.128;24.750;2022-09-30T03:23:31;99320.63;;;18.17;62.48
32875;BME280;40468;42.128;24.750;2022-09-30T03:25:27;99315.47;;;18.15;62.43
32875;BME280;40468;42.128;24.750;2022-09-30T03:27:10;99311.03;;;18.16;62.69
32875;BME280;40468;42.128;24.750;2022-09-30T03:28:51;99308.25;;;18.08;62.77
32875;BME280;40468;42.128;24.750;2022-09-30T03:30:28;99316.31;;;18.16;62.69
32875;BME280;40468;42.128;24.750;2022-09-30T03:32:11;99317.16;;;18.16;62.71
32875;BME280;40468;42.128;24.750;2022-09-30T03:33:50;99327.09;;;18.13;62.91
32875;BME280;40468;42.128;24.750;2022-09-30T03:35:29;99335.00;;;18.13;63.04
32875;BME280;40468;42.128;24.750;2022-09-30T03:37:11;99337.78;;;18.11;63.06
32875;BME280;40468;42.128;24.750;2022-09-30T03:38:54;99342.50;;;18.08;63.24
32875;BME280;40468;42.128;24.750;2022-09-30T03:40:36;99348.72;;;18.07;63.17
32875;BME280;40468;42.128;24.750;2022-09-30T03:42:14;99357.59;;;18.06;63.34
32875;BME280;40468;42.128;24.750;2022-09-30T03:43:51;99353.28;;;18.05;63.34
32875;BME280;40468;42.128;24.750;2022-09-30T03:45:32;99355.22;;;18.03;63.39
32875;BME280;40468;42.128;24.750;2022-09-30T03:47:14;99351.59;;;18.04;63.53
32875;BME280;40468;42.128;24.750;2022-09-30T03:48:54;99342.16;;;18.01;63.62
32875;BME280;40468;42.128;24.750;2022-09-30T03:50:28;99331.75;;;18.00;63.67
32875;BME280;40468;42.128;24.750;2022-09-30T03:52:04;99332.59;;;18.00;63.71
32875;BME280;40468;42.128;24.750;2022-09-30T03:53:42;99333.66;;;17.98;63.89
32875;BME280;40468;42.128;24.750;2022-09-30T03:55:18;99330.34;;;17.95;63.98
32875;BME280;40468;42.128;24.750;2022-09-30T03:56:52;99335.63;;;17.95;64.12
32875;BME280;40468;42.128;24.750;2022-09-30T03:58:25;99329.47;;;17.95;64.01
32875;BME280;40468;42.128;24.750;2022-09-30T03:59:57;99335.88;;;17.92;64.16
32875;BME280;40468;42.128;24.750;2022-09-30T04:01:30;99339.72;;;17.88;64.43
32875;BME280;40468;42.128;24.750;2022-09-30T04:03:06;99332.78;;;17.87;64.36
32875;BME280;40468;42.128;24.750;2022-09-30T04:04:39;99331.81;;;17.88;64.50
32875;BME280;40468;42.128;24.750;2022-09-30T04:06:14;99340.53;;;17.89;64.64
32875;BME280;40468;42.128;24.750;2022-09-30T04:07:46;99342.34;;;17.88;64.64
32875;BME280;40468;42.128;24.750;2022-09-30T04:09:18;99345.13;;;17.87;64.83
32875;BME280;40468;42.128;24.750;2022-09-30T04:10:52;99334.22;;;17.80;65.04
32875;BME280;40468;42.128;24.750;2022-09-30T04:12:24;99335.19;;;17.79;65.03
32875;BME280;40468;42.128;24.750;2022-09-30T04:13:56;99331.81;;;17.77;65.16
32875;BME280;40468;42.128;24.750;2022-09-30T04:15:28;99337.22;;;17.76;65.03
32875;BME280;40468;42.128;24.750;2022-09-30T04:17:00;99338.31;;;17.73;64.95
32875;BME280;40468;42.128;24.750;2022-09-30T04:18:34;99347.03;;;17.73;65.03
32875;BME280;40468;42.128;24.750;2022-09-30T04:20:07;99349.81;;;17.72;65.06
32875;BME280;40468;42.128;24.750;2022-09-30T04:21:39;99354.22;;;17.71;65.09
32875;BME280;40468;42.128;24.750;2022-09-30T04:23:11;99367.53;;;17.70;65.16
32875;BME280;40468;42.128;24.750;2022-09-30T04:24:43;99360.59;;;17.69;65.34
32875;BME280;40468;42.128;24.750;2022-09-30T04:26:18;99364.19;;;17.68;65.19
32875;BME280;40468;42.128;24.750;2022-09-30T04:27:50;99365.16;;;17.67;65.18
32875;BME280;40468;42.128;24.750;2022-09-30T04:29:21;99373.78;;;17.69;65.34
32875;BME280;40468;42.128;24.750;2022-09-30T04:30:53;99376.41;;;17.69;65.28
32875;BME280;40468;42.128;24.750;2022-09-30T04:32:26;99373.78;;;17.69;65.38
32875;BME280;40468;42.128;24.750;2022-09-30T04:33:58;99372.06;;;17.68;65.36
32875;BME280;40468;42.128;24.750;2022-09-30T04:35:30;99383.59;;;17.67;65.52
32875;BME280;40468;42.128;24.750;2022-09-30T04:37:02;99375.78;;;17.65;65.60
32875;BME280;40468;42.128;24.750;2022-09-30T04:38:35;99374.97;;;17.65;65.62
32875;BME280;40468;42.128;24.750;2022-09-30T04:40:08;99370.66;;;17.64;65.54
32875;BME280;40468;42.128;24.750;2022-09-30T04:41:41;99367.88;;;17.65;65.56
32875;BME280;40468;42.128;24.750;2022-09-30T04:43:13;99367.31;;;17.62;65.75
32875;BME280;40468;42.128;24.750;2022-09-30T04:44:44;99367.44;;;17.60;65.45
32875;BME280;40468;42.128;24.750;2022-09-30T04:46:17;99368.53;;;17.58;65.80
32875;BME280;40468;42.128;24.750;2022-09-30T04:47:50;99362.53;;;17.56;65.67
32875;BME280;40468;42.128;24.750;2022-09-30T04:49:22;99355.63;;;17.55;65.81
32875;BME280;40468;42.128;24.750;2022-09-30T04:50:54;99357.28;;;17.56;65.92
32875;BME280;40468;42.128;24.750;2022-09-30T04:52:26;99368.53;;;17.58;65.94
32875;BME280;40468;42.128;24.750;2022-09-30T04:53:58;99376.28;;;17.59;65.99
32875;BME280;40468;42.128;24.750;2022-09-30T04:55:31;99381.56;;;17.59;65.85
32875;BME280;40468;42.128;24.750;2022-09-30T04:57:04;99387.66;;;17.60;66.14
32875;BME280;40468;42.128;24.750;2022-09-30T04:58:36;99399.97;;;17.59;65.78
32875;BME280;40468;42.128;24.750;2022-09-30T05:00:09;99409.69;;;17.59;66.06
32875;BME280;40468;42.128;24.750;2022-09-30T05:01:42;99410.53;;;17.59;66.07
32875;BME280;40468;42.128;24.750;2022-09-30T05:03:14;99420.13;;;17.60;66.35
32875;BME280;40468;42.128;24.750;2022-09-30T05:04:46;99418.31;;;17.61;66.35
32875;BME280;40468;42.128;24.750;2022-09-30T05:06:18;99424.28;;;17.63;66.19
32875;BME280;40468;42.128;24.750;2022-09-30T05:07:50;99426.78;;;17.64;66.26
32875;BME280;40468;42.128;24.750;2022-09-30T05:09:25;99426.69;;;17.66;66.17
32875;BME280;40468;42.128;24.750;2022-09-30T05:10:59;99427.50;;;17.66;66.28
32875;BME280;40468;42.128;24.750;2022-09-30T05:12:33;99428.34;;;17.67;66.23
32875;BME280;40468;42.128;24.750;2022-09-30T05:14:06;99429.91;;;17.69;66.30
32875;BME280;40468;42.128;24.750;2022-09-30T05:15:39;99424.63;;;17.69;66.36
32875;BME280;40468;42.128;24.750;2022-09-30T05:17:11;99424.38;;;17.72;66.55
32875;BME280;40468;42.128;24.750;2022-09-30T05:18:44;99432.16;;;17.74;66.41
32875;BME280;40468;42.128;24.750;2022-09-30T05:20:17;99433.94;;;17.73;66.35
32875;BME280;40468;42.128;24.750;2022-09-30T05:21:49;99431.31;;;17.73;66.38
32875;BME280;40468;42.128;24.750;2022-09-30T05:23:22;99439.94;;;17.76;66.29
32875;BME280;40468;42.128;24.750;2022-09-30T05:24:54;99449.88;;;17.72;66.58
32875;BME280;40468;42.128;24.750;2022-09-30T05:26:27;99457.41;;;17.77;66.24
32875;BME280;40468;42.128;24.750;2022-09-30T05:28:00;99461.84;;;17.76;66.22
32875;BME280;40468;42.128;24.750;2022-09-30T05:29:32;99459.97;;;17.78;66.03
32875;BME280;40468;42.128;24.750;2022-09-30T05:31:05;99458.88;;;17.81;66.17
32875;BME280;40468;42.128;24.750;2022-09-30T05:32:37;99460.78;;;17.79;66.03
32875;BME280;40468;42.128;24.750;2022-09-30T05:34:09;99451.09;;;17.79;66.01
32875;BME280;40468;42.128;24.750;2022-09-30T05:35:42;99445.81;;;17.79;65.85
32875;BME280;40468;42.128;24.750;2022-09-30T05:37:14;99448.19;;;17.82;65.87
32875;BME280;40468;42.128;24.750;2022-09-30T05:38:49;99442.44;;;17.77;66.25
32875;BME280;40468;42.128;24.750;2022-09-30T05:40:21;99450.47;;;17.76;66.18
32875;BME280;40468;42.128;24.750;2022-09-30T05:41:58;99453.72;;;17.79;66.26
32875;BME280;40468;42.128;24.750;2022-09-30T05:43:32;99456.94;;;17.83;66.12
32875;BME280;40468;42.128;24.750;2022-09-30T05:45:05;99459.47;;;17.84;66.10
32875;BME280;40468;42.128;24.750;2022-09-30T05:46:38;99459.31;;;17.86;66.15
32875;BME280;40468;42.128;24.750;2022-09-30T05:48:10;99459.22;;;17.87;65.98
32875;BME280;40468;42.128;24.750;2022-09-30T05:49:42;99459.06;;;17.89;66.50
32875;BME280;40468;42.128;24.750;2022-09-30T05:51:15;99458.72;;;17.93;66.28
32875;BME280;40468;42.128;24.750;2022-09-30T05:52:47;99464.31;;;18.00;66.23
32875;BME280;40468;42.128;24.750;2022-09-30T05:54:19;99457.72;;;18.06;66.11
32875;BME280;40468;42.128;24.750;2022-09-30T05:55:52;99444.88;;;18.12;66.12
32875;BME280;40468;42.128;24.750;2022-09-30T05:57:24;99453.69;;;18.23;65.98
32875;BME280;40468;42.128;24.750;2022-09-30T05:58:57;99450.41;;;18.30;65.69
32875;BME280;40468;42.128;24.750;2022-09-30T06:00:29;99458.53;;;18.38;65.66
32875;BME280;40468;42.128;24.750;2022-09-30T06:02:01;99455.28;;;18.46;65.31
32875;BME280;40468;42.128;24.750;2022-09-30T06:03:35;99462.25;;;18.57;65.00
32875;BME280;40468;42.128;24.750;2022-09-30T06:05:07;99459.81;;;18.65;64.80
32875;BME280;40468;42.128;24.750;2022-09-30T06:06:40;99461.38;;;18.68;64.65
32875;BME280;40468;42.128;24.750;2022-09-30T06:08:13;99463.03;;;18.69;64.69
32875;BME280;40468;42.128;24.750;2022-09-30T06:09:45;99451.81;;;18.67;64.57
32875;BME280;40468;42.128;24.750;2022-09-30T06:11:19;99459.81;;;18.65;64.68
32875;BME280;40468;42.128;24.750;2022-09-30T06:12:56;99456.94;;;18.68;64.73
32875;BME280;40468;42.128;24.750;2022-09-30T06:14:30;99464.59;;;18.71;64.49
32875;BME280;40468;42.128;24.750;2022-09-30T06:16:02;99468.81;;;18.74;64.52
32875;BME280;40468;42.128;24.750;2022-09-30T06:17:34;99474.53;;;18.79;64.54
32875;BME280;40468;42.128;24.750;2022-09-30T06:19:06;99465.25;;;18.84;64.45
32875;BME280;40468;42.128;24.750;2022-09-30T06:20:38;99471.69;;;18.92;64.43
32875;BME280;40468;42.128;24.750;2022-09-30T06:22:10;99470.88;;;19.01;64.21
32875;BME280;40468;42.128;24.750;2022-09-30T06:23:43;99476.66;;;19.16;64.20
32875;BME280;40468;42.128;24.750;2022-09-30T06:25:16;99484.78;;;19.33;64.51
32875;BME280;40468;42.128;24.750;2022-09-30T06:26:48;99495.16;;;19.46;63.64
32875;BME280;40468;42.128;24.750;2022-09-30T06:28:20;99485.63;;;19.65;63.77
32875;BME280;40468;42.128;24.750;2022-09-30T06:29:54;99498.59;;;19.77;62.85
32875;BME280;40468;42.128;24.750;2022-09-30T06:31:26;99497.78;;;19.87;62.63
32875;BME280;40468;42.128;24.750;2022-09-30T06:33:00;99499.75;;;20.04;62.36
32875;BME280;40468;42.128;24.750;2022-09-30T06:34:32;99505.06;;;20.23;62.03
32875;BME280;40468;42.128;24.750;2022-09-30T06:36:04;99501.75;;;20.41;61.13
32875;BME280;40468;42.128;24.750;2022-09-30T06:37:36;99510.50;;;20.51;60.86
32875;BME280;40468;42.128;24.750;2022-09-30T06:39:08;99508.44;;;20.74;60.28
32875;BME280;40468;42.128;24.750;2022-09-30T06:40:41;99514.91;;;20.99;59.79
32875;BME280;40468;42.128;24.750;2022-09-30T06:42:13;99520.84;;;21.21;59.57
32875;BME280;40468;42.128;24.750;2022-09-30T06:43:45;99516.75;;;21.46;58.61
32875;BME280;40468;42.128;24.750;2022-09-30T06:45:18;99517.81;;;21.63;58.03
32875;BME280;40468;42.128;24.750;2022-09-30T06:46:52;99519.06;;;21.86;57.29
32875;BME280;40468;42.128;24.750;2022-09-30T06:48:24;99519.53;;;21.99;56.49
32875;BME280;40468;42.128;24.750;2022-09-30T06:49:59;99516.44;;;22.04;55.18
32875;BME280;40468;42.128;24.750;2022-09-30T06:51:32;99515.03;;;22.10;55.01
32875;BME280;40468;42.128;24.750;2022-09-30T06:53:06;99500.94;;;22.27;54.74
32875;BME280;40468;42.128;24.750;2022-09-30T06:54:39;99495.78;;;22.43;54.20
32875;BME280;40468;42.128;24.750;2022-09-30T06:56:13;99494.13;;;22.60;54.08
32875;BME280;40468;42.128;24.750;2022-09-30T06:57:47;99493.41;;;22.76;53.25
32875;BME280;40468;42.128;24.750;2022-09-30T06:59:19;99500.50;;;22.93;52.56
32875;BME280;40468;42.128;24.750;2022-09-30T07:01:01;99496.97;;;23.11;52.24
32875;BME280;40468;42.128;24.750;2022-09-30T07:02:33;99498.88;;;23.27;51.56
32875;BME280;40468;42.128;24.750;2022-09-30T07:04:05;99495.63;;;23.41;50.99
32875;BME280;40468;42.128;24.750;2022-09-30T07:05:39;99508.16;;;23.49;50.87
32875;BME280;40468;42.128;24.750;2022-09-30T07:07:11;99503.72;;;23.66;50.28
32875;BME280;40468;42.128;24.750;2022-09-30T07:08:43;99514.47;;;23.90;49.99
32875;BME280;40468;42.128;24.750;2022-09-30T07:10:15;99518.34;;;24.12;49.65
32875;BME280;40468;42.128;24.750;2022-09-30T07:11:47;99513.38;;;24.34;49.40
32875;BME280;40468;42.128;24.750;2022-09-30T07:13:19;99530.56;;;24.56;48.90
32875;BME280;40468;42.128;24.750;2022-09-30T07:14:50;99529.56;;;24.73;48.16
32875;BME280;40468;42.128;24.750;2022-09-30T07:16:23;99534.34;;;25.02;48.00
32875;BME280;40468;42.128;24.750;2022-09-30T07:17:55;99530.00;;;25.26;46.97
32875;BME280;40468;42.128;24.750;2022-09-30T07:19:28;99535.28;;;25.50;46.76
32875;BME280;40468;42.128;24.750;2022-09-30T07:21:00;99532.69;;;25.73;45.89
32875;BME280;40468;42.128;24.750;2022-09-30T07:22:32;99528.75;;;26.00;45.84
32875;BME280;40468;42.128;24.750;2022-09-30T07:24:04;99529.97;;;26.21;44.69
32875;BME280;40468;42.128;24.750;2022-09-30T07:25:36;99525.81;;;26.41;43.93
32875;BME280;40468;42.128;24.750;2022-09-30T07:27:08;99527.88;;;26.62;43.84
32875;BME280;40468;42.128;24.750;2022-09-30T07:28:43;99531.88;;;26.81;43.46
32875;BME280;40468;42.128;24.750;2022-09-30T07:30:15;99522.31;;;27.02;42.74
32875;BME280;40468;42.128;24.750;2022-09-30T07:31:52;99523.91;;;27.11;42.28
32875;BME280;40468;42.128;24.750;2022-09-30T07:33:26;99535.78;;;27.08;41.84
32875;BME280;40468;42.128;24.750;2022-09-30T07:34:58;99543.41;;;27.19;41.78
32875;BME280;40468;42.128;24.750;2022-09-30T07:36:30;99540.28;;;27.45;41.55
32875;BME280;40468;42.128;24.750;2022-09-30T07:38:02;99548.28;;;27.75;40.87
32875;BME280;40468;42.128;24.750;2022-09-30T07:39:34;99540.81;;;27.85;40.29
32875;BME280;40468;42.128;24.750;2022-09-30T07:41:09;99541.34;;;27.96;39.78
32875;BME280;40468;42.128;24.750;2022-09-30T07:42:42;99529.75;;;28.10;39.50
32875;BME280;40468;42.128;24.750;2022-09-30T07:44:14;99542.41;;;28.38;39.37
32875;BME280;40468;42.128;24.750;2022-09-30T07:45:47;99543.69;;;28.63;38.54
32875;BME280;40468;42.128;24.750;2022-09-30T07:47:19;99543.44;;;28.79;37.78
32875;BME280;40468;42.128;24.750;2022-09-30T07:48:53;99541.72;;;28.93;37.56
32875;BME280;40468;42.128;24.750;2022-09-30T07:50:26;99549.03;;;29.06;36.98
32875;BME280;40468;42.128;24.750;2022-09-30T07:51:58;99544.22;;;29.23;36.73
32875;BME280;40468;42.128;24.750;2022-09-30T07:53:31;99543.91;;;29.46;36.65
32875;BME280;40468;42.128;24.750;2022-09-30T07:55:03;99551.72;;;29.69;36.11
32875;BME280;40468;42.128;24.750;2022-09-30T07:56:35;99554.66;;;29.87;35.77
32875;BME280;40468;42.128;24.750;2022-09-30T07:58:09;99545.88;;;30.07;35.26
32875;BME280;40468;42.128;24.750;2022-09-30T07:59:41;99550.06;;;30.23;35.09
32875;BME280;40468;42.128;24.750;2022-09-30T08:01:14;99550.75;;;30.45;35.12
32875;BME280;40468;42.128;24.750;2022-09-30T08:02:47;99553.03;;;30.74;34.98
32875;BME280;40468;42.128;24.750;2022-09-30T08:04:20;99552.66;;;30.97;34.49
32875;BME280;40468;42.128;24.750;2022-09-30T08:05:53;99558.22;;;31.22;34.18
32875;BME280;40468;42.128;24.750;2022-09-30T08:07:25;99566.28;;;31.42;33.56
32875;BME280;40468;42.128;24.750;2022-09-30T08:08:57;99561.91;;;31.55;33.36
32875;BME280;40468;42.128;24.750;2022-09-30T08:10:32;99563.50;;;31.69;32.81
32875;BME280;40468;42.128;24.750;2022-09-30T08:12:04;99559.75;;;31.77;32.54
32875;BME280;40468;42.128;24.750;2022-09-30T08:13:37;99567.38;;;31.80;32.29
32875;BME280;40468;42.128;24.750;2022-09-30T08:15:09;99565.81;;;31.65;31.98
32875;BME280;40468;42.128;24.750;2022-09-30T08:16:41;99568.31;;;31.60;32.43